createdAt,value
2023-06-10T00:01:00.993Z,101108.00
2023-06-10T00:03:28.404Z,101113.00
2023-06-10T00:05:55.831Z,101118.00
2023-06-10T00:08:23.255Z,101109.00
2023-06-10T00:10:50.632Z,101117.00
2023-06-10T00:13:21.407Z,101114.00
2023-06-10T00:15:49.000Z,101111.00
2023-06-10T00:18:17.646Z,101113.00
2023-06-10T00:20:45.116Z,101115.00
2023-06-10T00:23:12.971Z,101116.00
2023-06-10T00:25:40.258Z,101110.00
2023-06-10T00:28:07.897Z,101115.00
2023-06-10T00:30:35.471Z,101113.00
2023-06-10T00:33:02.880Z,101110.00
2023-06-10T00:35:30.347Z,101105.00
2023-06-10T00:37:57.697Z,101114.00
2023-06-10T00:40:25.056Z,101128.00
2023-06-10T00:42:52.422Z,101117.00
2023-06-10T00:45:19.953Z,101115.00
2023-06-10T00:47:47.482Z,101121.00
2023-06-10T00:50:14.828Z,101124.00
2023-06-10T00:53:01.745Z,101128.00
2023-06-10T00:56:45.839Z,101125.00
2023-06-10T00:59:13.272Z,101122.00
2023-06-10T01:01:40.883Z,101119.00
2023-06-10T01:04:12.667Z,101120.00
2023-06-10T01:10:52.517Z,101119.00
2023-06-10T01:13:25.082Z,101126.00
2023-06-10T01:15:53.802Z,101127.00
2023-06-10T01:18:21.170Z,101131.00
2023-06-10T01:20:51.692Z,101126.00
2023-06-10T01:23:19.565Z,101126.00
2023-06-10T01:26:03.769Z,101130.00
2023-06-10T01:28:40.001Z,101132.00
2023-06-10T01:31:37.663Z,101125.00
2023-06-10T01:34:15.577Z,101136.00
2023-06-10T01:36:47.409Z,101134.00
2023-06-10T01:39:17.891Z,101138.00
2023-06-10T01:41:45.858Z,101127.00
2023-06-10T01:44:13.521Z,101135.00
2023-06-10T01:46:40.972Z,101138.00
2023-06-10T01:49:08.558Z,101133.00
2023-06-10T01:51:36.072Z,101133.00
2023-06-10T01:54:03.463Z,101136.00
2023-06-10T01:56:30.950Z,101123.00
2023-06-10T01:59:00.377Z,101137.00
2023-06-10T02:01:28.115Z,101140.00
2023-06-10T02:03:55.471Z,101131.00
2023-06-10T02:06:23.087Z,101133.00
2023-06-10T02:08:50.442Z,101133.00
2023-06-10T02:11:17.870Z,101137.00
2023-06-10T02:13:45.308Z,101127.00
2023-06-10T02:16:13.855Z,101130.00
2023-06-10T02:18:44.468Z,101142.00
2023-06-10T02:21:12.223Z,101139.00
2023-06-10T02:23:39.992Z,101140.00
2023-06-10T02:26:07.341Z,101145.00
2023-06-10T02:28:34.696Z,101137.00
2023-06-10T02:31:02.048Z,101138.00
2023-06-10T02:33:29.540Z,101145.00
2023-06-10T02:35:57.904Z,101139.00
2023-06-10T02:38:25.279Z,101142.00
2023-06-10T02:40:52.721Z,101151.00
2023-06-10T02:43:20.272Z,101152.00
2023-06-10T02:45:47.900Z,101143.00
2023-06-10T02:48:15.488Z,101150.00
2023-06-10T02:50:42.933Z,101157.00
2023-06-10T02:53:10.276Z,101150.00
2023-06-10T02:55:37.664Z,101149.00
2023-06-10T02:58:05.236Z,101145.00
2023-06-10T03:00:32.800Z,101141.00
2023-06-10T03:03:04.025Z,101147.00
2023-06-10T03:05:31.605Z,101145.00
2023-06-10T03:07:59.094Z,101150.00
2023-06-10T03:10:26.642Z,101149.00
2023-06-10T03:12:54.011Z,101146.00
2023-06-10T03:15:23.099Z,101145.00
2023-06-10T03:17:50.623Z,101150.00
2023-06-10T03:20:18.121Z,101155.00
2023-06-10T03:22:48.238Z,101141.00
2023-06-10T03:25:16.214Z,101152.00
2023-06-10T03:27:44.918Z,101152.00
2023-06-10T03:30:14.407Z,101152.00
2023-06-10T03:32:42.398Z,101160.00
2023-06-10T03:35:10.284Z,101157.00
2023-06-10T03:37:37.986Z,101163.00
2023-06-10T03:40:07.048Z,101158.00
2023-06-10T03:42:34.562Z,101169.00
2023-06-10T03:45:02.508Z,101163.00
2023-06-10T03:47:39.245Z,101162.00
2023-06-10T03:50:07.621Z,101162.00
2023-06-10T03:52:35.806Z,101166.00
2023-06-10T03:55:06.411Z,101176.00
2023-06-10T03:57:34.044Z,101166.00
2023-06-10T04:00:01.619Z,101164.00
2023-06-10T04:02:29.917Z,101173.00
2023-06-10T04:04:57.240Z,101167.00
2023-06-10T04:07:25.050Z,101169.00
2023-06-10T04:09:52.514Z,101164.00
2023-06-10T04:12:19.836Z,101167.00
2023-06-10T04:14:47.045Z,101164.00
2023-06-10T04:17:14.402Z,101164.00
2023-06-10T04:19:41.812Z,101176.00
2023-06-10T04:22:09.241Z,101172.00
2023-06-10T04:24:36.966Z,101183.00
2023-06-10T04:27:04.579Z,101170.00
2023-06-10T04:29:32.004Z,101171.00
2023-06-10T04:31:59.428Z,101170.00
2023-06-10T04:34:26.964Z,101177.00
2023-06-10T04:36:54.357Z,101180.00
2023-06-10T04:39:21.932Z,101185.00
2023-06-10T04:41:49.307Z,101178.00
2023-06-10T04:44:32.645Z,101172.00
2023-06-10T04:46:59.904Z,101176.00
2023-06-10T04:49:27.210Z,101185.00
2023-06-10T04:51:54.479Z,101171.00
2023-06-10T04:54:22.057Z,101178.00
2023-06-10T04:56:49.245Z,101169.00
2023-06-10T04:59:16.723Z,101173.00
2023-06-10T05:01:46.899Z,101175.00
2023-06-10T05:04:14.472Z,101165.00
2023-06-10T05:06:41.872Z,101171.00
2023-06-10T05:09:09.147Z,101170.00
2023-06-10T05:11:36.368Z,101173.00
2023-06-10T05:14:03.710Z,101178.00
2023-06-10T05:16:31.219Z,101184.00
2023-06-10T05:18:58.683Z,101186.00
2023-06-10T05:21:26.224Z,101173.00
2023-06-10T05:23:53.583Z,101169.00
2023-06-10T05:26:21.063Z,101181.00
2023-06-10T05:28:49.158Z,101185.00
2023-06-10T05:31:16.915Z,101176.00
2023-06-10T05:33:44.387Z,101183.00
2023-06-10T05:36:11.726Z,101185.00
2023-06-10T05:42:48.665Z,101185.00
2023-06-10T05:45:16.674Z,101183.00
2023-06-10T05:47:44.221Z,101191.00
2023-06-10T05:50:11.962Z,101186.00
2023-06-10T05:52:41.547Z,101182.00
2023-06-10T05:55:11.580Z,101190.00
2023-06-10T05:57:39.424Z,101190.00
2023-06-10T06:00:07.911Z,101191.00
2023-06-10T06:02:35.416Z,101183.00
2023-06-10T06:05:02.916Z,101182.00
2023-06-10T06:07:31.242Z,101181.00
2023-06-10T06:09:58.592Z,101176.00
2023-06-10T06:12:26.164Z,101170.00
2023-06-10T06:14:53.395Z,101183.00
2023-06-10T06:17:20.986Z,101184.00
2023-06-10T06:19:49.223Z,101178.00
2023-06-10T06:22:16.509Z,101175.00
2023-06-10T06:24:44.056Z,101181.00
2023-06-10T06:27:11.731Z,101180.00
2023-06-10T06:29:39.185Z,101184.00
2023-06-10T06:32:08.300Z,101184.00
2023-06-10T06:34:35.485Z,101187.00
2023-06-10T06:37:03.109Z,101197.00
2023-06-10T06:39:31.558Z,101189.00
2023-06-10T06:41:58.889Z,101188.00
2023-06-10T06:44:26.222Z,101190.00
2023-06-10T06:46:53.536Z,101193.00
2023-06-10T06:49:20.867Z,101203.00
2023-06-10T06:51:48.179Z,101189.00
2023-06-10T06:54:15.501Z,101194.00
2023-06-10T06:56:42.862Z,101188.00
2023-06-10T06:59:10.170Z,101198.00
2023-06-10T07:01:37.392Z,101197.00
2023-06-10T07:04:04.960Z,101196.00
2023-06-10T07:06:33.699Z,101198.00
2023-06-10T07:09:02.871Z,101201.00
2023-06-10T07:11:30.302Z,101200.00
2023-06-10T07:13:58.157Z,101198.00
2023-06-10T07:16:25.675Z,101197.00
2023-06-10T07:18:54.889Z,101203.00
2023-06-10T07:21:23.841Z,101199.00
2023-06-10T07:23:54.963Z,101199.00
2023-06-10T07:26:24.371Z,101198.00
2023-06-10T07:28:51.797Z,101201.00
2023-06-10T07:31:19.480Z,101206.00
2023-06-10T07:33:48.216Z,101204.00
2023-06-10T07:36:15.571Z,101202.00
2023-06-10T07:38:43.726Z,101202.00
2023-06-10T07:41:12.017Z,101199.00
2023-06-10T07:43:39.709Z,101200.00
2023-06-10T07:46:07.287Z,101212.00
2023-06-10T07:49:12.052Z,101207.00
2023-06-10T07:51:39.383Z,101198.00
2023-06-10T07:54:06.785Z,101207.00
2023-06-10T07:56:34.320Z,101191.00
2023-06-10T07:59:01.832Z,101206.00
2023-06-10T08:01:29.215Z,101203.00
2023-06-10T08:03:56.630Z,101196.00
2023-06-10T08:06:23.963Z,101198.00
2023-06-10T08:08:52.699Z,101194.00
2023-06-10T08:11:20.151Z,101200.00
2023-06-10T08:13:47.535Z,101207.00
2023-06-10T08:16:14.910Z,101199.00
2023-06-10T08:18:42.576Z,101206.00
2023-06-10T08:21:09.869Z,101196.00
2023-06-10T08:23:37.060Z,101200.00
2023-06-10T08:26:04.372Z,101198.00
2023-06-10T08:28:32.033Z,101201.00
2023-06-10T08:30:59.310Z,101198.00
2023-06-10T08:33:26.676Z,101201.00
2023-06-10T08:35:53.977Z,101203.00
2023-06-10T08:38:21.382Z,101204.00
2023-06-10T08:40:48.703Z,101202.00
2023-06-10T08:43:30.962Z,101199.00
2023-06-10T08:46:03.319Z,101195.00
2023-06-10T08:48:32.861Z,101200.00
2023-06-10T08:51:01.675Z,101207.00
2023-06-10T08:53:33.326Z,101208.00
2023-06-10T08:56:05.687Z,101212.00
2023-06-10T08:58:36.674Z,101209.00
2023-06-10T09:01:04.303Z,101204.00
2023-06-10T09:03:33.132Z,101200.00
2023-06-10T09:06:00.969Z,101192.00
2023-06-10T09:08:28.777Z,101199.00
2023-06-10T09:10:58.441Z,101200.00
2023-06-10T09:13:25.996Z,101209.00
2023-06-10T09:15:53.535Z,101213.00
2023-06-10T09:18:21.663Z,101202.00
2023-06-10T09:20:49.129Z,101198.00
2023-06-10T09:23:19.415Z,101205.00
2023-06-10T09:25:46.682Z,101199.00
2023-06-10T09:28:17.231Z,101209.00
2023-06-10T09:30:44.552Z,101197.00
2023-06-10T09:33:16.705Z,101199.00
2023-06-10T09:35:53.115Z,101195.00
2023-06-10T09:38:24.503Z,101191.00
2023-06-10T09:40:53.916Z,101201.00
2023-06-10T09:43:22.711Z,101198.00
2023-06-10T09:45:58.521Z,101200.00
2023-06-10T09:48:31.310Z,101198.00
2023-06-10T09:50:58.850Z,101190.00
2023-06-10T09:53:26.473Z,101191.00
2023-06-10T09:55:54.136Z,101187.00
2023-06-10T09:58:50.692Z,101187.00
2023-06-10T10:01:18.477Z,101181.00
2023-06-10T10:03:53.362Z,101186.00
2023-06-10T10:06:22.116Z,101181.00
2023-06-10T10:08:53.068Z,101191.00
2023-06-10T10:11:27.439Z,101184.00
2023-06-10T10:13:55.430Z,101186.00
2023-06-10T10:17:18.950Z,101185.00
2023-06-10T10:20:05.010Z,101181.00
2023-06-10T10:22:43.100Z,101175.00
2023-06-10T10:25:22.071Z,101175.00
2023-06-10T10:28:18.191Z,101186.00
2023-06-10T10:30:58.318Z,101185.00
2023-06-10T10:33:55.784Z,101181.00
2023-06-10T10:36:23.834Z,101178.00
2023-06-10T10:39:10.785Z,101175.00
2023-06-10T10:41:39.805Z,101170.00
2023-06-10T10:44:11.852Z,101169.00
2023-06-10T10:46:52.817Z,101177.00
2023-06-10T10:49:21.813Z,101165.00
2023-06-10T10:52:03.130Z,101172.00
2023-06-10T10:54:36.932Z,101161.00
2023-06-10T10:57:25.447Z,101164.00
2023-06-10T10:59:57.300Z,101166.00
2023-06-10T11:02:45.431Z,101155.00
2023-06-10T11:05:23.139Z,101165.00
2023-06-10T11:07:59.098Z,101153.00
2023-06-10T11:10:36.237Z,101159.00
2023-06-10T11:13:15.104Z,101160.00
2023-06-10T11:15:51.555Z,101166.00
2023-06-10T11:18:30.408Z,101157.00
2023-06-10T11:21:04.299Z,101154.00
2023-06-10T11:23:34.342Z,101154.00
2023-06-10T11:26:33.372Z,101145.00
2023-06-10T11:29:00.889Z,101153.00
2023-06-10T11:31:51.862Z,101151.00
2023-06-10T11:34:29.104Z,101141.00
2023-06-10T11:36:56.514Z,101146.00
2023-06-10T11:39:25.828Z,101139.00
2023-06-10T11:41:53.937Z,101131.00
2023-06-10T11:44:21.396Z,101136.00
2023-06-10T11:46:52.767Z,101128.00
2023-06-10T11:49:22.279Z,101130.00
2023-06-10T11:51:53.096Z,101123.00
2023-06-10T11:54:20.668Z,101125.00
2023-06-10T11:56:48.932Z,101129.00
2023-06-10T11:59:16.467Z,101124.00
2023-06-10T12:01:46.539Z,101117.00
2023-06-10T12:04:17.217Z,101115.00
2023-06-10T12:06:53.564Z,101115.00
2023-06-10T12:09:30.188Z,101125.00
2023-06-10T12:12:07.393Z,101116.00
2023-06-10T12:15:00.397Z,101124.00
2023-06-10T12:17:35.626Z,101110.00
2023-06-10T12:20:06.687Z,101107.00
2023-06-10T12:22:45.175Z,101107.00
2023-06-10T12:25:14.174Z,101099.00
2023-06-10T12:27:57.133Z,101102.00
2023-06-10T12:30:30.316Z,101099.00
2023-06-10T12:32:58.563Z,101096.00
2023-06-10T12:35:29.835Z,101102.00
2023-06-10T12:38:08.245Z,101090.00
2023-06-10T12:40:41.286Z,101099.00
2023-06-10T12:43:09.154Z,101100.00
2023-06-10T12:45:44.487Z,101091.00
2023-06-10T12:48:24.714Z,101091.00
2023-06-10T12:50:57.842Z,101083.00
2023-06-10T12:53:29.491Z,101088.00
2023-06-10T12:55:59.345Z,101094.00
2023-06-10T12:58:26.637Z,101108.00
2023-06-10T13:00:54.430Z,101104.00
2023-06-10T13:03:22.156Z,101089.00
2023-06-10T13:05:49.845Z,101104.00
2023-06-10T13:08:17.502Z,101093.00
2023-06-10T13:10:44.893Z,101091.00
2023-06-10T13:13:12.362Z,101082.00
2023-06-10T13:15:43.550Z,101078.00
2023-06-10T13:18:11.933Z,101083.00
2023-06-10T13:20:39.532Z,101073.00
2023-06-10T13:23:06.990Z,101081.00
2023-06-10T13:25:34.373Z,101072.00
2023-06-10T13:28:02.506Z,101065.00
2023-06-10T13:30:30.024Z,101070.00
2023-06-10T13:32:57.436Z,101072.00
2023-06-10T13:35:27.489Z,101072.00
2023-06-10T13:37:54.704Z,101065.00
2023-06-10T13:40:22.191Z,101086.00
2023-06-10T13:42:52.239Z,101069.00
2023-06-10T13:45:19.577Z,101068.00
2023-06-10T13:47:46.994Z,101078.00
2023-06-10T13:50:14.774Z,101075.00
2023-06-10T13:52:42.108Z,101071.00
2023-06-10T13:55:10.687Z,101065.00
2023-06-10T13:57:38.439Z,101058.00
2023-06-10T14:00:06.906Z,101063.00
2023-06-10T14:02:34.419Z,101065.00
2023-06-10T14:05:02.916Z,101062.00
2023-06-10T14:07:30.357Z,101072.00
2023-06-10T14:09:57.684Z,101066.00
2023-06-10T14:12:24.927Z,101073.00
2023-06-10T14:14:52.128Z,101066.00
2023-06-10T14:17:19.591Z,101064.00
2023-06-10T14:19:47.281Z,101060.00
2023-06-10T14:22:14.639Z,101052.00
2023-06-10T14:24:41.995Z,101049.00
2023-06-10T14:27:09.395Z,101049.00
2023-06-10T14:29:36.831Z,101045.00
2023-06-10T14:32:07.460Z,101050.00
2023-06-10T14:34:36.489Z,101046.00
2023-06-10T14:37:08.855Z,101041.00
2023-06-10T14:39:36.587Z,101049.00
2023-06-10T14:42:07.007Z,101051.00
2023-06-10T14:44:34.543Z,101052.00
2023-06-10T14:47:02.223Z,101052.00
2023-06-10T14:49:31.876Z,101048.00
2023-06-10T14:51:59.274Z,101050.00
2023-06-10T14:54:26.536Z,101041.00
2023-06-10T14:56:54.395Z,101039.00
2023-06-10T14:59:24.908Z,101034.00
2023-06-10T15:01:52.355Z,101039.00
2023-06-10T15:04:22.956Z,101039.00
2023-06-10T15:06:52.365Z,101037.00
2023-06-10T15:09:19.846Z,101034.00
2023-06-10T15:11:47.122Z,101045.00
2023-06-10T15:14:14.562Z,101042.00
2023-06-10T15:16:48.331Z,101039.00
2023-06-10T15:19:15.957Z,101039.00
2023-06-10T15:21:43.338Z,101033.00
2023-06-10T15:24:11.880Z,101028.00
2023-06-10T15:26:39.408Z,101032.00
2023-06-10T15:29:07.405Z,101027.00
2023-06-10T15:31:34.930Z,101036.00
2023-06-10T15:34:02.599Z,101038.00
2023-06-10T15:36:30.075Z,101046.00
2023-06-10T15:39:04.463Z,101042.00
2023-06-10T15:41:31.941Z,101042.00
2023-06-10T15:44:01.089Z,101024.00
2023-06-10T15:46:32.666Z,101027.00
2023-06-10T15:48:59.998Z,101030.00
2023-06-10T15:51:27.665Z,101030.00
2023-06-10T15:53:55.400Z,101029.00
2023-06-10T15:56:23.909Z,101019.00
2023-06-10T15:58:51.338Z,101027.00
2023-06-10T16:01:19.025Z,101025.00
2023-06-10T16:03:46.488Z,101027.00
2023-06-10T16:06:19.910Z,101028.00
2023-06-10T16:08:48.089Z,101032.00
2023-06-10T16:11:15.643Z,101037.00
2023-06-10T16:13:43.002Z,101029.00
2023-06-10T16:16:10.559Z,101029.00
2023-06-10T16:18:37.868Z,101029.00
2023-06-10T16:21:06.099Z,101034.00
2023-06-10T16:23:33.746Z,101034.00
2023-06-10T16:26:01.131Z,101021.00
2023-06-10T16:28:28.638Z,101030.00
2023-06-10T16:30:56.205Z,101036.00
2023-06-10T16:33:23.947Z,101025.00
2023-06-10T16:35:51.601Z,101031.00
2023-06-10T16:38:19.024Z,101021.00
2023-06-10T16:40:46.315Z,101030.00
2023-06-10T16:43:13.678Z,101033.00
2023-06-10T16:45:41.106Z,101029.00
2023-06-10T16:48:08.690Z,101026.00
2023-06-10T16:50:36.248Z,101029.00
2023-06-10T16:53:03.866Z,101022.00
2023-06-10T16:55:31.116Z,101022.00
2023-06-10T16:57:58.450Z,101026.00
2023-06-10T17:00:25.972Z,101026.00
2023-06-10T17:02:53.582Z,101023.00
2023-06-10T17:05:20.933Z,101029.00
2023-06-10T17:07:48.559Z,101025.00
2023-06-10T17:10:16.066Z,101020.00
2023-06-10T17:12:43.635Z,101035.00
2023-06-10T17:15:11.697Z,101031.00
2023-06-10T17:17:39.381Z,101025.00
2023-06-10T17:20:08.391Z,101036.00
2023-06-10T17:22:36.053Z,101031.00
2023-06-10T17:25:03.303Z,101034.00
2023-06-10T17:27:30.709Z,101025.00
2023-06-10T17:29:58.119Z,101036.00
2023-06-10T17:32:25.441Z,101033.00
2023-06-10T17:34:53.005Z,101038.00
2023-06-10T17:37:20.365Z,101032.00
2023-06-10T17:39:47.724Z,101038.00
2023-06-10T17:42:15.388Z,101041.00
2023-06-10T17:44:43.249Z,101038.00
2023-06-10T17:47:10.590Z,101051.00
2023-06-10T17:49:38.044Z,101053.00
2023-06-10T17:52:06.046Z,101047.00
2023-06-10T17:54:33.388Z,101049.00
2023-06-10T17:57:00.981Z,101050.00
2023-06-10T17:59:28.563Z,101056.00
2023-06-10T18:01:56.048Z,101056.00
2023-06-10T18:04:24.008Z,101064.00
2023-06-10T18:06:51.485Z,101048.00
2023-06-10T18:09:18.751Z,101051.00
2023-06-10T18:11:46.190Z,101063.00
2023-06-10T18:14:13.548Z,101063.00
2023-06-10T18:16:41.358Z,101064.00
2023-06-10T18:19:08.791Z,101062.00
2023-06-10T18:21:37.381Z,101064.00
2023-06-10T18:24:05.908Z,101057.00
2023-06-10T18:26:33.296Z,101054.00
2023-06-10T18:29:00.617Z,101060.00
2023-06-10T18:31:31.107Z,101066.00
2023-06-10T18:33:58.702Z,101064.00
2023-06-10T18:36:26.151Z,101069.00
2023-06-10T18:38:53.654Z,101070.00
2023-06-10T18:41:22.361Z,101064.00
2023-06-10T18:43:49.694Z,101063.00
2023-06-10T18:46:17.333Z,101076.00
2023-06-10T18:48:46.672Z,101081.00
2023-06-10T18:51:13.942Z,101089.00
2023-06-10T18:53:41.292Z,101084.00
2023-06-10T18:56:09.526Z,101079.00
2023-06-10T18:58:37.003Z,101086.00
2023-06-10T19:01:05.635Z,101089.00
2023-06-10T19:03:33.471Z,101086.00
2023-06-10T19:06:01.812Z,101092.00
2023-06-10T19:08:29.413Z,101096.00
2023-06-10T19:10:57.075Z,101101.00
2023-06-10T19:13:26.238Z,101099.00
2023-06-10T19:15:53.674Z,101103.00
2023-06-10T19:18:21.414Z,101102.00
2023-06-10T19:20:48.958Z,101104.00
2023-06-10T19:23:16.398Z,101107.00
2023-06-10T19:25:44.018Z,101117.00
2023-06-10T19:28:11.699Z,101106.00
2023-06-10T19:30:41.183Z,101115.00
2023-06-10T19:33:10.881Z,101122.00
2023-06-10T19:35:39.400Z,101115.00
2023-06-10T19:38:06.870Z,101123.00
2023-06-10T19:40:34.170Z,101127.00
2023-06-10T19:43:02.898Z,101130.00
2023-06-10T19:45:30.389Z,101128.00
2023-06-10T19:47:57.723Z,101132.00
2023-06-10T19:50:25.580Z,101131.00
2023-06-10T19:52:52.932Z,101142.00
2023-06-10T19:55:21.517Z,101147.00
2023-06-10T19:57:48.962Z,101153.00
2023-06-10T20:00:17.574Z,101146.00
2023-06-10T20:02:44.972Z,101142.00
2023-06-10T20:05:12.528Z,101144.00
2023-06-10T20:07:43.432Z,101147.00
2023-06-10T20:10:11.149Z,101155.00
2023-06-10T20:12:38.462Z,101160.00
2023-06-10T20:15:09.031Z,101154.00
2023-06-10T20:17:37.131Z,101148.00
2023-06-10T20:20:05.206Z,101155.00
2023-06-10T20:22:32.673Z,101151.00
2023-06-10T20:25:14.622Z,101164.00
2023-06-10T20:27:42.162Z,101159.00
2023-06-10T20:30:10.274Z,101158.00
2023-06-10T20:32:37.766Z,101160.00
2023-06-10T20:35:06.213Z,101158.00
2023-06-10T20:37:33.549Z,101167.00
2023-06-10T20:40:00.877Z,101166.00
2023-06-10T20:42:29.332Z,101164.00
2023-06-10T20:44:57.181Z,101162.00
2023-06-10T20:48:20.897Z,101171.00
2023-06-10T20:50:48.304Z,101170.00
2023-06-10T20:53:15.687Z,101175.00
2023-06-10T20:55:43.133Z,101182.00
2023-06-10T20:58:11.756Z,101172.00
2023-06-10T21:00:39.084Z,101180.00
2023-06-10T21:03:06.495Z,101173.00
2023-06-10T21:05:34.241Z,101177.00
2023-06-10T21:08:01.722Z,101172.00
2023-06-10T21:10:29.072Z,101174.00
2023-06-10T21:12:57.259Z,101187.00
2023-06-10T21:15:24.736Z,101188.00
2023-06-10T21:17:52.082Z,101187.00
2023-06-10T21:20:19.466Z,101182.00
2023-06-10T21:22:46.769Z,101182.00
2023-06-10T21:25:14.281Z,101186.00
2023-06-10T21:27:41.517Z,101187.00
2023-06-10T21:30:09.476Z,101189.00
2023-06-10T21:32:36.898Z,101186.00
2023-06-10T21:35:04.692Z,101190.00
2023-06-10T21:37:32.107Z,101188.00
2023-06-10T21:39:59.353Z,101187.00
2023-06-10T21:42:26.606Z,101184.00
2023-06-10T21:44:53.849Z,101190.00
2023-06-10T21:47:21.155Z,101190.00
2023-06-10T21:50:26.151Z,101191.00
2023-06-10T21:52:53.372Z,101194.00
2023-06-10T21:55:20.844Z,101190.00
2023-06-10T21:57:48.584Z,101196.00
2023-06-10T22:00:16.560Z,101200.00
2023-06-10T22:02:43.925Z,101193.00
2023-06-10T22:05:11.369Z,101193.00
2023-06-10T22:07:39.157Z,101197.00
2023-06-10T22:10:07.619Z,101203.00
2023-06-10T22:12:34.866Z,101199.00
2023-06-10T22:15:02.039Z,101207.00
2023-06-10T22:17:29.397Z,101202.00
2023-06-10T22:19:57.027Z,101194.00
2023-06-10T22:22:24.280Z,101199.00
2023-06-10T22:24:58.058Z,101202.00
2023-06-10T22:27:25.825Z,101204.00
2023-06-10T22:29:53.073Z,101195.00
2023-06-10T22:32:20.608Z,101200.00
2023-06-10T22:34:48.004Z,101202.00
2023-06-10T22:37:15.623Z,101201.00
2023-06-10T22:39:42.919Z,101200.00
2023-06-10T22:42:10.842Z,101199.00
2023-06-10T22:44:38.634Z,101190.00
2023-06-10T22:47:06.636Z,101195.00
2023-06-10T22:49:33.841Z,101199.00
2023-06-10T22:52:01.267Z,101199.00
2023-06-10T22:54:28.521Z,101205.00
2023-06-10T22:56:56.079Z,101201.00
2023-06-10T22:59:23.587Z,101197.00
2023-06-10T23:01:50.927Z,101198.00
2023-06-10T23:04:18.461Z,101198.00
2023-06-10T23:06:47.068Z,101202.00
2023-06-10T23:09:15.617Z,101195.00
2023-06-10T23:11:43.310Z,101205.00
2023-06-10T23:14:11.072Z,101207.00
2023-06-10T23:16:46.878Z,101210.00
2023-06-10T23:19:28.272Z,101207.00
2023-06-10T23:21:59.905Z,101208.00
2023-06-10T23:24:30.789Z,101204.00
2023-06-10T23:27:02.872Z,101204.00
2023-06-10T23:29:30.131Z,101214.00
2023-06-10T23:31:57.624Z,101207.00
2023-06-10T23:34:25.324Z,101214.00
2023-06-10T23:36:53.888Z,101211.00
2023-06-10T23:39:21.670Z,101211.00
2023-06-10T23:41:48.998Z,101205.00
2023-06-10T23:44:16.631Z,101204.00
2023-06-10T23:46:43.860Z,101196.00
2023-06-10T23:49:11.048Z,101203.00
2023-06-10T23:51:38.914Z,101205.00
2023-06-10T23:54:07.186Z,101201.00
2023-06-10T23:56:34.726Z,101196.00
2023-06-10T23:59:02.115Z,101193.00
